createdAt,value
2022-11-17T00:00:07.669Z,95918.72
2022-11-17T00:02:17.377Z,95904.78
2022-11-17T00:04:25.395Z,95895.69
2022-11-17T00:06:33.331Z,95891.03
2022-11-17T00:08:41.294Z,95887.28
2022-11-17T00:10:49.127Z,95875.88
2022-11-17T00:13:09.478Z,95860.97
2022-11-17T00:15:20.212Z,95861.13
2022-11-17T00:17:28.100Z,95856.06
2022-11-17T00:19:48.543Z,95846.69
2022-11-17T00:21:53.793Z,95839.03
2022-11-17T00:24:02.192Z,95846.75
2022-11-17T00:26:10.260Z,95832.09
2022-11-17T00:28:18.162Z,95839.41
2022-11-17T00:30:43.816Z,95839.06
2022-11-17T00:33:04.372Z,95841.97
2022-11-17T00:35:12.580Z,95843.06
2022-11-17T00:37:20.769Z,95845.41
2022-11-17T00:39:28.533Z,95852.44
2022-11-17T00:41:36.485Z,95856.06
2022-11-17T00:43:44.414Z,95853.66
2022-11-17T00:45:54.834Z,95852.81
2022-11-17T00:48:02.912Z,95853.03
2022-11-17T00:50:12.386Z,95833.78
2022-11-17T00:52:20.199Z,95826.25
2022-11-17T00:54:28.743Z,95832.44
2022-11-17T00:56:36.630Z,95826.91
2022-11-17T00:58:44.527Z,95823.56
2022-11-17T01:00:54.994Z,95817.66
2022-11-17T01:03:03.328Z,95814.13
2022-11-17T01:05:11.803Z,95815.09
2022-11-17T01:07:26.797Z,95813.41
2022-11-17T01:09:34.740Z,95806.31
2022-11-17T01:11:42.600Z,95795.59
2022-11-17T01:13:51.158Z,95794.09
2022-11-17T01:16:08.479Z,95786.00
2022-11-17T01:18:16.371Z,95781.22
2022-11-17T01:20:24.204Z,95780.94
2022-11-17T01:22:31.958Z,95777.28
2022-11-17T01:24:39.733Z,95769.34
2022-11-17T01:26:50.697Z,95766.81
2022-11-17T01:28:59.145Z,95764.00
2022-11-17T01:31:13.288Z,95750.50
2022-11-17T01:33:21.198Z,95751.63
2022-11-17T01:35:28.879Z,95736.59
2022-11-17T01:37:37.946Z,95745.34
2022-11-17T01:39:45.772Z,95732.56
2022-11-17T01:41:54.389Z,95738.44
2022-11-17T01:44:22.761Z,95739.84
2022-11-17T01:46:35.869Z,95734.75
2022-11-17T01:48:46.055Z,95739.78
2022-11-17T01:50:53.868Z,95732.59
2022-11-17T01:53:04.245Z,95733.16
2022-11-17T01:55:15.202Z,95728.13
2022-11-17T01:57:27.541Z,95727.59
2022-11-17T01:59:38.390Z,95717.53
2022-11-17T02:01:59.426Z,95705.28
2022-11-17T02:04:07.639Z,95699.25
2022-11-17T02:06:21.360Z,95695.53
2022-11-17T02:08:33.559Z,95698.88
2022-11-17T02:10:47.131Z,95694.69
2022-11-17T02:12:58.222Z,95685.63
2022-11-17T02:15:07.719Z,95688.03
2022-11-17T02:17:18.458Z,95675.88
2022-11-17T02:19:29.450Z,95665.31
2022-11-17T02:22:20.607Z,95656.41
2022-11-17T02:25:00.693Z,95649.97
2022-11-17T02:27:39.052Z,95651.09
2022-11-17T02:29:55.901Z,95648.56
2022-11-17T02:32:09.390Z,95637.97
2022-11-17T02:34:30.295Z,95637.38
2022-11-17T02:36:46.416Z,95628.44
2022-11-17T02:39:02.333Z,95626.63
2022-11-17T02:41:17.623Z,95627.75
2022-11-17T02:43:42.635Z,95618.53
2022-11-17T02:45:57.706Z,95610.72
2022-11-17T02:48:13.388Z,95607.91
2022-11-17T02:50:28.069Z,95596.50
2022-11-17T02:52:37.339Z,95575.91
2022-11-17T02:54:45.635Z,95580.28
2022-11-17T02:56:53.737Z,95594.75
2022-11-17T02:59:06.033Z,95597.50
2022-11-17T03:01:32.177Z,95588.34
2022-11-17T03:03:54.364Z,95591.69
2022-11-17T03:06:11.814Z,95596.97
2022-11-17T03:08:32.909Z,95592.13
2022-11-17T03:10:51.428Z,95605.69
2022-11-17T03:13:08.561Z,95621.66
2022-11-17T03:15:26.441Z,95629.78
2022-11-17T03:17:48.522Z,95639.25
2022-11-17T03:20:03.341Z,95657.50
2022-11-17T03:22:18.255Z,95651.41
2022-11-17T03:24:32.810Z,95651.00
2022-11-17T03:26:45.214Z,95640.69
2022-11-17T03:28:55.605Z,95631.78
2022-11-17T03:31:07.237Z,95623.84
2022-11-17T03:33:24.179Z,95615.31
2022-11-17T03:35:36.204Z,95615.75
2022-11-17T03:37:49.830Z,95626.19
2022-11-17T03:40:04.738Z,95617.56
2022-11-17T03:42:19.382Z,95624.53
2022-11-17T03:44:30.552Z,95633.34
2022-11-17T03:46:42.027Z,95639.88
2022-11-17T03:48:58.537Z,95650.19
2022-11-17T03:51:11.814Z,95667.22
2022-11-17T03:53:19.786Z,95659.97
2022-11-17T03:55:34.890Z,95661.38
2022-11-17T03:57:49.259Z,95647.28
2022-11-17T04:00:00.830Z,95630.41
2022-11-17T04:02:09.360Z,95624.69
2022-11-17T04:04:22.731Z,95616.47
2022-11-17T04:06:30.683Z,95613.09
2022-11-17T04:08:38.601Z,95601.41
2022-11-17T04:10:58.618Z,95599.72
2022-11-17T04:13:18.800Z,95588.72
2022-11-17T04:15:39.433Z,95594.88
2022-11-17T04:17:47.362Z,95596.78
2022-11-17T04:19:57.825Z,95588.16
2022-11-17T04:22:06.232Z,95581.19
2022-11-17T04:24:14.062Z,95580.50
2022-11-17T04:26:34.345Z,95573.13
2022-11-17T04:28:42.482Z,95565.75
2022-11-17T04:30:50.415Z,95559.88
2022-11-17T04:32:58.353Z,95552.94
2022-11-17T04:35:10.014Z,95555.84
2022-11-17T04:37:20.023Z,95548.16
2022-11-17T04:39:28.013Z,95540.94
2022-11-17T04:41:50.474Z,95547.91
2022-11-17T04:43:59.464Z,95550.41
2022-11-17T04:46:07.653Z,95543.72
2022-11-17T04:48:15.450Z,95551.38
2022-11-17T04:50:26.956Z,95546.75
2022-11-17T04:52:35.901Z,95544.28
2022-11-17T04:54:44.780Z,95548.47
2022-11-17T04:56:55.647Z,95549.97
2022-11-17T04:59:03.512Z,95554.44
2022-11-17T05:01:18.805Z,95538.56
2022-11-17T05:03:26.680Z,95541.19
2022-11-17T05:05:37.514Z,95548.72
2022-11-17T05:07:45.659Z,95545.34
2022-11-17T05:09:53.545Z,95545.09
2022-11-17T05:12:13.796Z,95543.00
2022-11-17T05:14:24.614Z,95553.19
2022-11-17T05:16:44.836Z,95545.66
2022-11-17T05:18:53.719Z,95556.25
2022-11-17T05:21:07.930Z,95549.97
2022-11-17T05:23:28.128Z,95554.56
2022-11-17T05:25:35.999Z,95557.50
2022-11-17T05:27:43.944Z,95561.97
2022-11-17T05:29:51.852Z,95564.38
2022-11-17T05:31:59.717Z,95580.78
2022-11-17T05:34:09.718Z,95583.16
2022-11-17T05:36:20.916Z,95582.03
2022-11-17T05:38:28.762Z,95583.84
2022-11-17T05:40:37.737Z,95577.47
2022-11-17T05:42:45.743Z,95586.09
2022-11-17T05:44:53.605Z,95588.31
2022-11-17T05:47:01.452Z,95598.75
2022-11-17T05:49:09.553Z,95595.28
2022-11-17T05:51:20.783Z,95589.16
2022-11-17T05:53:29.731Z,95592.50
2022-11-17T05:55:38.961Z,95596.00
2022-11-17T05:57:47.809Z,95590.13
2022-11-17T06:00:01.119Z,95587.91
2022-11-17T06:02:13.094Z,95586.34
2022-11-17T06:04:23.409Z,95602.66
2022-11-17T06:06:36.758Z,95598.91
2022-11-17T06:08:44.972Z,95593.91
2022-11-17T06:10:52.845Z,95589.97
2022-11-17T06:13:00.725Z,95584.69
2022-11-17T06:15:11.068Z,95584.16
2022-11-17T06:17:23.406Z,95580.25
2022-11-17T06:19:38.507Z,95587.47
2022-11-17T06:22:11.248Z,95594.59
2022-11-17T06:24:17.477Z,95593.03
2022-11-17T06:26:25.654Z,95598.91
2022-11-17T06:28:35.201Z,95593.75
2022-11-17T06:30:43.877Z,95600.72
2022-11-17T06:32:52.680Z,95604.06
2022-11-17T06:35:02.264Z,95617.56
2022-11-17T06:37:13.360Z,95626.25
2022-11-17T06:39:21.788Z,95622.03
2022-11-17T06:41:30.834Z,95623.88
2022-11-17T06:43:38.915Z,95609.38
2022-11-17T06:45:50.127Z,95613.00
2022-11-17T06:47:58.352Z,95621.22
2022-11-17T06:50:06.622Z,95625.53
2022-11-17T06:52:17.246Z,95631.53
2022-11-17T06:54:25.382Z,95634.88
2022-11-17T06:56:33.318Z,95628.31
2022-11-17T06:58:42.881Z,95635.03
2022-11-17T07:00:50.830Z,95636.84
2022-11-17T07:03:03.795Z,95623.44
2022-11-17T07:05:12.616Z,95628.63
2022-11-17T07:07:23.337Z,95638.63
2022-11-17T07:09:31.385Z,95648.00
2022-11-17T07:11:39.223Z,95634.31
2022-11-17T07:13:47.494Z,95626.84
2022-11-17T07:15:58.164Z,95634.78
2022-11-17T07:18:07.323Z,95630.59
2022-11-17T07:20:15.540Z,95639.81
2022-11-17T07:22:26.248Z,95640.63
2022-11-17T07:24:34.453Z,95641.88
2022-11-17T07:26:42.353Z,95640.59
2022-11-17T07:28:50.250Z,95630.38
2022-11-17T07:30:59.071Z,95637.34
2022-11-17T07:33:07.112Z,95632.72
2022-11-17T07:35:14.958Z,95641.81
2022-11-17T07:37:25.776Z,95634.47
2022-11-17T07:39:34.825Z,95637.41
2022-11-17T07:41:43.986Z,95636.13
2022-11-17T07:43:52.441Z,95633.47
2022-11-17T07:46:03.229Z,95638.78
2022-11-17T07:48:11.284Z,95643.13
2022-11-17T07:50:19.288Z,95638.47
2022-11-17T07:52:37.245Z,95634.59
2022-11-17T07:54:48.221Z,95651.00
2022-11-17T07:56:56.057Z,95654.91
2022-11-17T07:59:04.758Z,95654.63
2022-11-17T08:01:15.321Z,95635.41
2022-11-17T08:03:24.497Z,95642.47
2022-11-17T08:05:34.793Z,95648.50
2022-11-17T08:07:48.049Z,95640.59
2022-11-17T08:09:55.881Z,95641.75
2022-11-17T08:12:03.714Z,95643.31
2022-11-17T08:14:11.603Z,95635.94
2022-11-17T08:16:20.811Z,95639.66
2022-11-17T08:18:30.557Z,95647.06
2022-11-17T08:20:38.383Z,95656.47
2022-11-17T08:22:49.350Z,95666.72
2022-11-17T08:24:57.231Z,95668.28
2022-11-17T08:27:05.244Z,95662.41
2022-11-17T08:29:13.068Z,95665.44
2022-11-17T08:31:21.070Z,95664.59
2022-11-17T08:33:28.907Z,95666.19
2022-11-17T08:35:37.910Z,95668.56
2022-11-17T08:37:48.602Z,95671.16
2022-11-17T08:39:56.572Z,95669.06
2022-11-17T08:42:04.604Z,95663.47
2022-11-17T08:44:12.608Z,95658.91
2022-11-17T08:46:20.426Z,95670.00
2022-11-17T08:48:29.731Z,95667.16
2022-11-17T08:50:38.376Z,95674.47
2022-11-17T08:52:49.811Z,95681.16
2022-11-17T08:54:57.967Z,95684.13
2022-11-17T08:57:06.443Z,95699.16
2022-11-17T08:59:15.574Z,95707.94
2022-11-17T09:01:23.461Z,95698.75
2022-11-17T09:03:31.488Z,95702.69
2022-11-17T09:05:42.401Z,95703.72
2022-11-17T09:07:54.141Z,95701.44
2022-11-17T09:10:02.153Z,95700.03
2022-11-17T09:12:10.350Z,95711.22
2022-11-17T09:14:18.461Z,95718.94
2022-11-17T09:16:26.854Z,95704.63
2022-11-17T09:18:35.025Z,95708.34
2022-11-17T09:20:45.924Z,95713.88
2022-11-17T09:22:57.124Z,95717.72
2022-11-17T09:25:10.289Z,95704.53
2022-11-17T09:27:21.214Z,95717.63
2022-11-17T09:29:29.057Z,95713.22
2022-11-17T09:31:38.439Z,95710.06
2022-11-17T09:33:47.349Z,95712.75
2022-11-17T09:36:00.450Z,95709.78
2022-11-17T09:38:10.988Z,95718.16
2022-11-17T09:40:23.537Z,95717.91
2022-11-17T09:42:31.490Z,95713.44
2022-11-17T09:44:44.562Z,95729.53
2022-11-17T09:47:05.055Z,95725.56
2022-11-17T09:49:19.570Z,95722.41
2022-11-17T09:51:30.788Z,95740.81
2022-11-17T09:53:48.201Z,95737.28
2022-11-17T09:56:01.024Z,95736.63
2022-11-17T09:58:20.907Z,95730.25
2022-11-17T10:00:29.376Z,95728.56
2022-11-17T10:02:38.518Z,95741.25
2022-11-17T10:04:46.443Z,95733.69
2022-11-17T10:06:54.383Z,95736.03
2022-11-17T10:09:24.046Z,95738.69
2022-11-17T10:11:37.206Z,95733.69
2022-11-17T10:13:49.756Z,95731.28
2022-11-17T10:16:01.645Z,95741.38
2022-11-17T10:18:15.321Z,95741.09
2022-11-17T10:20:23.502Z,95747.00
2022-11-17T10:22:47.932Z,95746.72
2022-11-17T10:24:58.945Z,95757.22
2022-11-17T10:27:08.119Z,95774.84
2022-11-17T10:29:17.597Z,95782.31
2022-11-17T10:31:27.818Z,95774.50
2022-11-17T10:33:41.578Z,95782.28
2022-11-17T10:35:58.341Z,95769.66
2022-11-17T10:38:08.770Z,95747.13
2022-11-17T10:40:37.008Z,95741.38
2022-11-17T10:42:51.992Z,95741.44
2022-11-17T10:45:03.530Z,95748.78
2022-11-17T10:47:28.529Z,95730.38
2022-11-17T10:49:39.850Z,95739.25
2022-11-17T10:51:48.934Z,95736.59
2022-11-17T10:54:09.148Z,95754.44
2022-11-17T10:56:23.473Z,95745.09
2022-11-17T10:58:34.041Z,95746.41
2022-11-17T11:00:43.193Z,95746.41
2022-11-17T11:02:51.515Z,95742.75
2022-11-17T11:05:09.742Z,95744.59
2022-11-17T11:07:22.950Z,95748.78
2022-11-17T11:09:33.033Z,95738.59
2022-11-17T11:11:47.907Z,95732.59
2022-11-17T11:14:00.413Z,95729.88
2022-11-17T11:16:08.888Z,95718.00
2022-11-17T11:18:18.719Z,95716.50
2022-11-17T11:20:43.738Z,95722.97
2022-11-17T11:22:59.158Z,95715.81
2022-11-17T11:25:25.917Z,95717.47
2022-11-17T11:28:07.226Z,95729.69
2022-11-17T11:30:19.533Z,95724.91
2022-11-17T11:32:37.069Z,95735.41
2022-11-17T11:35:07.457Z,95718.72
2022-11-17T11:37:20.129Z,95724.56
2022-11-17T11:39:42.958Z,95722.22
2022-11-17T11:42:08.279Z,95735.75
2022-11-17T11:44:39.028Z,95727.56
2022-11-17T11:46:56.165Z,95728.09
2022-11-17T11:49:19.628Z,95735.75
2022-11-17T11:51:32.290Z,95734.59
2022-11-17T11:53:48.563Z,95721.22
2022-11-17T11:56:11.190Z,95742.09
2022-11-17T11:58:23.968Z,95732.75
2022-11-17T12:00:37.872Z,95746.91
2022-11-17T12:02:52.861Z,95742.06
2022-11-17T12:05:16.928Z,95738.09
2022-11-17T12:07:35.330Z,95735.59
2022-11-17T12:10:04.365Z,95743.44
2022-11-17T12:12:18.599Z,95742.94
2022-11-17T12:14:26.514Z,95757.31
2022-11-17T12:16:43.370Z,95747.59
2022-11-17T12:18:51.179Z,95742.63
2022-11-17T12:21:02.719Z,95757.59
2022-11-17T12:23:22.439Z,95746.03
2022-11-17T12:25:33.438Z,95753.53
2022-11-17T12:27:48.199Z,95755.53
2022-11-17T12:29:57.162Z,95759.44
2022-11-17T12:32:09.945Z,95754.63
2022-11-17T12:34:30.826Z,95754.75
2022-11-17T12:36:39.137Z,95753.78
2022-11-17T12:38:47.017Z,95756.13
2022-11-17T12:40:57.159Z,95748.28
2022-11-17T12:43:24.563Z,95749.91
2022-11-17T12:45:37.549Z,95753.03
2022-11-17T12:48:18.302Z,95753.03
2022-11-17T12:50:43.974Z,95754.94
2022-11-17T12:53:05.525Z,95752.59
2022-11-17T12:55:21.194Z,95752.28
2022-11-17T12:57:36.571Z,95739.47
2022-11-17T13:00:07.889Z,95744.44
2022-11-17T13:02:43.959Z,95749.28
2022-11-17T13:04:58.724Z,95750.09
2022-11-17T13:07:08.453Z,95745.78
2022-11-17T13:09:29.677Z,95751.13
2022-11-17T13:11:38.800Z,95755.94
2022-11-17T13:13:47.496Z,95750.63
2022-11-17T13:15:58.895Z,95752.97
2022-11-17T13:18:14.090Z,95752.44
2022-11-17T13:20:28.684Z,95756.13
2022-11-17T13:22:41.738Z,95747.13
2022-11-17T13:24:53.859Z,95744.75
2022-11-17T13:27:07.454Z,95747.78
2022-11-17T13:29:24.258Z,95749.09
2022-11-17T13:31:32.320Z,95757.09
2022-11-17T13:33:41.371Z,95755.25
2022-11-17T13:35:51.875Z,95760.13
2022-11-17T13:38:09.518Z,95757.97
2022-11-17T13:40:24.779Z,95754.78
2022-11-17T13:42:37.246Z,95755.97
2022-11-17T13:44:45.334Z,95750.94
2022-11-17T13:46:53.364Z,95755.94
2022-11-17T13:49:03.519Z,95756.28
2022-11-17T13:51:27.920Z,95746.63
2022-11-17T13:53:35.880Z,95753.13
2022-11-17T13:55:56.410Z,95752.63
2022-11-17T13:58:08.427Z,95746.94
2022-11-17T14:00:20.974Z,95746.09
2022-11-17T14:02:32.372Z,95754.28
2022-11-17T14:04:40.522Z,95751.47
2022-11-17T14:06:59.894Z,95755.44
2022-11-17T14:09:08.795Z,95747.13
2022-11-17T14:11:24.860Z,95747.28
2022-11-17T14:13:34.992Z,95756.44
2022-11-17T14:15:49.152Z,95742.72
2022-11-17T14:18:02.605Z,95736.56
2022-11-17T14:20:22.789Z,95730.03
2022-11-17T14:22:34.673Z,95728.22
2022-11-17T14:24:42.684Z,95735.97
2022-11-17T14:26:50.761Z,95744.13
2022-11-17T14:29:02.282Z,95741.63
2022-11-17T14:31:16.077Z,95728.56
2022-11-17T14:33:24.836Z,95732.56
2022-11-17T14:35:32.884Z,95722.22
2022-11-17T14:37:43.763Z,95729.44
2022-11-17T14:39:51.554Z,95723.56
2022-11-17T14:41:59.431Z,95729.38
2022-11-17T14:44:08.209Z,95729.25
2022-11-17T14:46:22.861Z,95730.28
2022-11-17T14:48:30.906Z,95726.53
2022-11-17T14:50:38.647Z,95721.97
2022-11-17T14:52:49.367Z,95722.25
2022-11-17T14:54:59.086Z,95721.53
2022-11-17T14:57:08.528Z,95712.69
2022-11-17T14:59:17.541Z,95714.34
2022-11-17T15:01:29.026Z,95719.25
2022-11-17T15:03:36.879Z,95718.09
2022-11-17T15:05:48.895Z,95715.72
2022-11-17T15:08:00.882Z,95703.25
2022-11-17T15:10:10.734Z,95710.25
2022-11-17T15:12:18.590Z,95722.28
2022-11-17T15:14:26.385Z,95724.16
2022-11-17T15:16:34.598Z,95722.47
2022-11-17T15:18:42.774Z,95724.16
2022-11-17T15:20:50.700Z,95730.91
2022-11-17T15:23:03.506Z,95723.47
2022-11-17T15:25:12.353Z,95731.56
2022-11-17T15:27:22.772Z,95720.78
2022-11-17T15:29:31.772Z,95712.81
2022-11-17T15:31:39.677Z,95714.97
2022-11-17T15:33:49.317Z,95720.38
2022-11-17T15:36:04.557Z,95714.09
2022-11-17T15:38:15.072Z,95701.81
2022-11-17T15:40:23.319Z,95696.66
2022-11-17T15:42:31.324Z,95698.44
2022-11-17T15:44:39.446Z,95697.50
2022-11-17T15:46:48.068Z,95697.59
2022-11-17T15:48:56.253Z,95697.84
2022-11-17T15:51:05.809Z,95692.13
2022-11-17T15:53:16.199Z,95693.50
2022-11-17T15:55:24.008Z,95691.75
2022-11-17T15:57:34.637Z,95691.34
2022-11-17T15:59:42.823Z,95690.97
2022-11-17T16:01:51.010Z,95693.06
2022-11-17T16:04:01.757Z,95694.22
2022-11-17T16:06:10.906Z,95698.00
2022-11-17T16:08:23.817Z,95697.94
2022-11-17T16:10:32.132Z,95697.00
2022-11-17T16:12:40.034Z,95696.53
2022-11-17T16:14:47.917Z,95692.75
2022-11-17T16:16:55.784Z,95689.22
2022-11-17T16:19:04.327Z,95696.66
2022-11-17T16:21:15.855Z,95696.38
2022-11-17T16:23:26.342Z,95682.31
2022-11-17T16:25:34.226Z,95687.41
2022-11-17T16:27:42.064Z,95695.47
2022-11-17T16:29:52.272Z,95684.28
2022-11-17T16:32:00.692Z,95695.25
2022-11-17T16:34:10.660Z,95691.03
2022-11-17T16:36:19.911Z,95707.22
2022-11-17T16:38:31.811Z,95700.63
2022-11-17T16:40:40.060Z,95698.88
2022-11-17T16:42:50.155Z,95700.22
2022-11-17T16:44:59.061Z,95699.94
2022-11-17T16:47:07.680Z,95704.41
2022-11-17T16:49:18.161Z,95697.00
2022-11-17T16:51:26.634Z,95699.81
2022-11-17T16:53:37.226Z,95696.50
2022-11-17T16:55:45.074Z,95696.19
2022-11-17T16:57:52.879Z,95708.09
2022-11-17T17:00:00.683Z,95700.63
2022-11-17T17:02:12.219Z,95704.94
2022-11-17T17:04:20.446Z,95708.81
2022-11-17T17:06:29.200Z,95707.69
2022-11-17T17:08:40.055Z,95704.59
2022-11-17T17:10:48.405Z,95709.50
2022-11-17T17:12:57.527Z,95707.19
2022-11-17T17:15:05.484Z,95712.16
2022-11-17T17:17:13.509Z,95712.31
2022-11-17T17:19:22.488Z,95705.09
2022-11-17T17:21:32.835Z,95704.13
2022-11-17T17:23:43.388Z,95693.00
2022-11-17T17:25:51.329Z,95700.16
2022-11-17T17:27:59.437Z,95707.00
2022-11-17T17:30:08.396Z,95709.91
2022-11-17T17:32:16.852Z,95715.28
2022-11-17T17:34:24.737Z,95715.38
2022-11-17T17:36:33.390Z,95715.56
2022-11-17T17:38:47.723Z,95717.00
2022-11-17T17:40:58.241Z,95717.50
2022-11-17T17:43:06.673Z,95727.00
2022-11-17T17:45:16.540Z,95725.88
2022-11-17T17:47:24.403Z,95723.66
2022-11-17T17:49:32.314Z,95723.81
2022-11-17T17:51:44.502Z,95726.78
2022-11-17T17:53:56.098Z,95723.75
2022-11-17T17:56:04.640Z,95728.66
2022-11-17T17:58:12.985Z,95731.31
2022-11-17T18:00:22.357Z,95717.06
2022-11-17T18:02:31.704Z,95716.28
2022-11-17T18:04:39.456Z,95714.44
2022-11-17T18:06:49.292Z,95715.44
2022-11-17T18:09:00.192Z,95720.97
2022-11-17T18:11:10.056Z,95723.41
2022-11-17T18:13:17.917Z,95722.72
2022-11-17T18:15:26.524Z,95726.31
2022-11-17T18:17:34.449Z,95732.75
2022-11-17T18:19:42.852Z,95733.06
2022-11-17T18:21:50.778Z,95727.22
2022-11-17T18:24:03.325Z,95725.22
2022-11-17T18:26:15.706Z,95729.81
2022-11-17T18:28:24.457Z,95726.06
2022-11-17T18:30:33.779Z,95727.91
2022-11-17T18:32:41.694Z,95726.91
2022-11-17T18:34:49.646Z,95731.72
2022-11-17T18:37:01.466Z,95732.09
2022-11-17T18:39:12.413Z,95725.69
2022-11-17T18:41:21.906Z,95730.34
2022-11-17T18:43:32.742Z,95725.31
2022-11-17T18:45:41.596Z,95730.63
2022-11-17T18:47:49.439Z,95731.41
2022-11-17T18:49:57.363Z,95734.06
2022-11-17T18:52:05.770Z,95741.88
2022-11-17T18:54:16.714Z,95740.38
2022-11-17T18:56:26.356Z,95747.44
2022-11-17T18:58:36.814Z,95746.09
2022-11-17T19:00:47.573Z,95743.88
2022-11-17T19:02:55.507Z,95748.94
2022-11-17T19:05:04.734Z,95748.31
2022-11-17T19:07:13.370Z,95756.06
2022-11-17T19:09:26.471Z,95764.66
2022-11-17T19:11:34.830Z,95767.34
2022-11-17T19:13:44.433Z,95766.75
2022-11-17T19:15:53.890Z,95761.50
2022-11-17T19:18:01.851Z,95756.78
2022-11-17T19:20:13.592Z,95758.00
2022-11-17T19:22:21.466Z,95761.88
2022-11-17T19:24:31.930Z,95772.75
2022-11-17T19:26:40.125Z,95777.06
2022-11-17T19:28:50.571Z,95775.63
2022-11-17T19:31:05.233Z,95772.56
2022-11-17T19:33:13.182Z,95770.97
2022-11-17T19:35:22.816Z,95780.00
2022-11-17T19:37:32.120Z,95780.72
2022-11-17T19:39:42.673Z,95774.78
2022-11-17T19:41:50.659Z,95767.53
2022-11-17T19:44:01.403Z,95772.56
2022-11-17T19:46:12.463Z,95788.81
2022-11-17T19:48:20.726Z,95786.38
2022-11-17T19:50:28.738Z,95791.31
2022-11-17T19:52:36.710Z,95792.41
2022-11-17T19:54:47.356Z,95801.00
2022-11-17T19:56:55.857Z,95800.72
2022-11-17T19:59:04.296Z,95813.06
2022-11-17T20:01:14.169Z,95820.38
2022-11-17T20:03:22.116Z,95816.19
2022-11-17T20:05:30.028Z,95820.13
2022-11-17T20:07:39.623Z,95818.06
2022-11-17T20:09:50.439Z,95825.03
2022-11-17T20:12:03.676Z,95823.97
2022-11-17T20:14:11.948Z,95825.22
2022-11-17T20:16:21.646Z,95839.09
2022-11-17T20:18:30.002Z,95841.63
2022-11-17T20:20:39.982Z,95840.28
2022-11-17T20:22:48.779Z,95835.56
2022-11-17T20:25:03.593Z,95834.56
2022-11-17T20:27:14.198Z,95831.94
2022-11-17T20:29:23.467Z,95834.16
2022-11-17T20:31:34.878Z,95840.72
2022-11-17T20:33:44.258Z,95844.75
2022-11-17T20:35:52.215Z,95840.88
2022-11-17T20:38:03.497Z,95830.38
2022-11-17T20:40:15.531Z,95827.44
2022-11-17T20:42:24.483Z,95824.66
2022-11-17T20:44:32.838Z,95833.94
2022-11-17T20:46:40.608Z,95828.75
2022-11-17T20:48:48.644Z,95831.41
2022-11-17T20:51:00.138Z,95836.59
2022-11-17T20:53:08.185Z,95833.34
2022-11-17T20:55:20.136Z,95832.66
2022-11-17T20:57:28.427Z,95833.47
2022-11-17T20:59:36.333Z,95836.31
2022-11-17T21:01:44.321Z,95826.16
2022-11-17T21:03:55.365Z,95817.13
2022-11-17T21:06:05.519Z,95820.53
2022-11-17T21:08:16.339Z,95814.25
2022-11-17T21:10:33.909Z,95805.75
2022-11-17T21:12:42.725Z,95816.91
2022-11-17T21:14:50.810Z,95808.84
2022-11-17T21:17:02.189Z,95809.34
2022-11-17T21:19:11.427Z,95808.31
2022-11-17T21:21:19.503Z,95808.47
2022-11-17T21:23:28.662Z,95806.25
2022-11-17T21:25:39.836Z,95808.22
2022-11-17T21:27:47.694Z,95810.56
2022-11-17T21:29:55.590Z,95808.06
2022-11-17T21:32:18.030Z,95800.97
2022-11-17T21:34:32.486Z,95802.78
2022-11-17T21:36:42.848Z,95810.06
2022-11-17T21:38:51.288Z,95832.41
2022-11-17T21:41:04.859Z,95832.16
2022-11-17T21:43:14.360Z,95833.06
2022-11-17T21:45:22.252Z,95846.53
2022-11-17T21:47:30.394Z,95834.97
2022-11-17T21:49:38.278Z,95843.19
2022-11-17T21:51:46.582Z,95838.06
2022-11-17T21:53:56.516Z,95837.16
2022-11-17T21:56:09.846Z,95828.13
2022-11-17T21:58:18.155Z,95840.38
2022-11-17T22:00:28.303Z,95835.03
2022-11-17T22:02:36.446Z,95833.13
2022-11-17T22:04:44.854Z,95825.63
2022-11-17T22:06:52.803Z,95836.91
2022-11-17T22:09:02.436Z,95837.44
2022-11-17T22:11:16.486Z,95837.44
2022-11-17T22:13:24.395Z,95833.50
2022-11-17T22:15:32.986Z,95830.56
2022-11-17T22:17:40.794Z,95841.22
2022-11-17T22:19:48.705Z,95844.34
2022-11-17T22:21:57.402Z,95846.75
2022-11-17T22:24:06.431Z,95841.94
2022-11-17T22:26:17.012Z,95825.00
2022-11-17T22:28:25.549Z,95815.78
2022-11-17T22:30:33.371Z,95798.00
2022-11-17T22:32:45.153Z,95796.25
2022-11-17T22:34:54.968Z,95780.69
2022-11-17T22:37:03.000Z,95785.09
2022-11-17T22:39:11.186Z,95776.88
2022-11-17T22:41:23.375Z,95774.13
2022-11-17T22:43:33.177Z,95766.00
2022-11-17T22:45:41.633Z,95760.25
2022-11-17T22:47:50.077Z,95759.41
2022-11-17T22:49:58.038Z,95763.16
2022-11-17T22:52:10.418Z,95756.19
2022-11-17T22:54:18.365Z,95753.94
2022-11-17T22:56:29.034Z,95753.53
2022-11-17T22:58:37.261Z,95751.75
2022-11-17T23:00:46.258Z,95743.22
2022-11-17T23:02:54.349Z,95741.56
2022-11-17T23:05:08.261Z,95727.63
2022-11-17T23:07:16.329Z,95730.78
2022-11-17T23:09:24.273Z,95720.94
2022-11-17T23:11:37.423Z,95725.19
2022-11-17T23:13:46.012Z,95721.81
2022-11-17T23:15:53.994Z,95720.88
2022-11-17T23:18:02.324Z,95722.22
2022-11-17T23:20:13.039Z,95723.84
2022-11-17T23:22:21.373Z,95730.09
2022-11-17T23:24:29.469Z,95731.50
2022-11-17T23:26:41.263Z,95729.94
2022-11-17T23:28:49.413Z,95727.06
2022-11-17T23:31:01.362Z,95733.75
2022-11-17T23:33:09.321Z,95723.59
2022-11-17T23:35:17.552Z,95726.22
2022-11-17T23:37:26.491Z,95723.44
2022-11-17T23:39:34.628Z,95725.44
2022-11-17T23:41:45.808Z,95725.63
2022-11-17T23:43:56.313Z,95717.13
2022-11-17T23:46:08.993Z,95713.63
2022-11-17T23:48:17.065Z,95715.31
2022-11-17T23:50:25.991Z,95719.03
2022-11-17T23:52:35.691Z,95714.59
2022-11-17T23:54:43.434Z,95715.19
2022-11-17T23:56:53.893Z,95711.56
2022-11-17T23:59:03.283Z,95704.69
